Time,TemperatureF,DewpointF,PressureIn,WindDirection,WindDirectionDegrees,WindSpeedMPH,WindSpeedGustMPH,Humidity,HourlyPrecipIn,Conditions,Clouds,dailyrainin,SoftwareType,DateUTC
2013-03-18 00:02:00,23.7,16.3,30.16,NE,45,0.0,-999.0,73,-99.99,,,0.00,Acu-Link.com,2013-03-18 04:02:00,
2013-03-18 00:18:00,23.2,16.2,30.16,SE,135,0.0,-999.0,74,-99.99,,,0.00,Acu-Link.com,2013-03-18 04:18:00,
2013-03-18 00:33:00,22.6,16.2,30.16,NE,45,0.0,-999.0,76,-99.99,,,0.00,Acu-Link.com,2013-03-18 04:33:00,
2013-03-18 00:48:00,22.3,16.5,30.16,ENE,67,0.0,-999.0,78,-99.99,,,0.00,Acu-Link.com,2013-03-18 04:48:00,
2013-03-18 01:03:00,22.1,16.0,30.16,NNE,22,0.0,-999.0,77,-99.99,,,0.00,Acu-Link.com,2013-03-18 05:03:00,
2013-03-18 01:18:00,21.7,16.5,30.16,East,90,0.0,-999.0,80,-99.99,,,0.00,Acu-Link.com,2013-03-18 05:18:00,
2013-03-18 01:33:00,21.6,16.1,30.15,SW,225,0.0,-999.0,79,-99.99,,,0.00,Acu-Link.com,2013-03-18 05:33:00,
2013-03-18 01:48:00,21.0,16.4,30.16,NE,45,0.0,-999.0,82,-99.99,,,0.00,Acu-Link.com,2013-03-18 05:48:00,
2013-03-18 02:03:00,21.2,16.3,30.17,NE,45,0.0,-999.0,81,-99.99,,,0.00,Acu-Link.com,2013-03-18 06:03:00,
2013-03-18 02:18:00,21.0,15.8,30.17,NE,45,0.0,-999.0,80,-99.99,,,0.00,Acu-Link.com,2013-03-18 06:18:00,
2013-03-18 02:34:00,20.8,15.6,30.17,SE,135,0.0,-999.0,80,-99.99,,,0.00,Acu-Link.com,2013-03-18 06:34:00,
2013-03-18 02:49:00,20.1,15.8,30.18,NE,45,0.0,-999.0,83,-99.99,,,0.00,Acu-Link.com,2013-03-18 06:49:00,
2013-03-18 03:04:00,20.3,16.0,30.19,ESE,112,0.0,-999.0,83,-99.99,,,0.00,Acu-Link.com,2013-03-18 07:04:00,
2013-03-18 03:19:00,19.9,15.3,30.19,NNE,22,0.0,-999.0,82,-99.99,,,0.00,Acu-Link.com,2013-03-18 07:19:00,
2013-03-18 03:34:00,19.6,15.0,30.19,NE,45,0.0,-999.0,82,-99.99,,,0.00,Acu-Link.com,2013-03-18 07:34:00,
2013-03-18 03:49:00,19.4,15.4,30.19,NE,45,0.0,-999.0,84,-99.99,,,0.00,Acu-Link.com,2013-03-18 07:49:00,
2013-03-18 04:04:00,18.9,14.9,30.19,NW,315,0.0,-999.0,84,-99.99,,,0.00,Acu-Link.com,2013-03-18 08:04:00,
2013-03-18 04:20:00,18.9,15.2,30.19,NE,45,0.0,-999.0,85,-99.99,,,0.00,Acu-Link.com,2013-03-18 08:20:00,
2013-03-18 04:35:00,19.2,15.4,30.20,NNE,22,0.0,-999.0,85,-99.99,,,0.00,Acu-Link.com,2013-03-18 08:35:00,
2013-03-18 04:50:00,20.1,16.3,30.19,NE,45,0.0,-999.0,85,-99.99,,,0.00,Acu-Link.com,2013-03-18 08:50:00,
2013-03-18 05:05:00,20.3,16.3,30.19,ESE,112,0.0,-999.0,84,-99.99,,,0.00,Acu-Link.com,2013-03-18 09:05:00,
2013-03-18 05:20:00,20.3,16.3,30.19,ESE,112,0.0,-999.0,84,-99.99,,,0.00,Acu-Link.com,2013-03-18 09:20:00,
2013-03-18 05:35:00,20.3,16.0,30.19,ENE,67,0.0,-999.0,83,-99.99,,,0.00,Acu-Link.com,2013-03-18 09:35:00,
2013-03-18 05:50:00,20.7,16.4,30.19,ESE,112,0.0,-999.0,83,-99.99,,,0.00,Acu-Link.com,2013-03-18 09:50:00,
2013-03-18 06:05:00,21.2,16.0,30.19,SSE,157,0.0,-999.0,80,-99.99,,,0.00,Acu-Link.com,2013-03-18 10:05:00,
2013-03-18 06:20:00,21.2,16.0,30.19,NE,45,0.0,-999.0,80,-99.99,,,0.00,Acu-Link.com,2013-03-18 10:20:00,
2013-03-18 06:36:00,21.2,16.0,30.18,ENE,67,0.0,-999.0,80,-99.99,,,0.00,Acu-Link.com,2013-03-18 10:36:00,
2013-03-18 06:51:00,21.6,16.1,30.18,SSE,157,0.0,-999.0,79,-99.99,,,0.00,Acu-Link.com,2013-03-18 10:51:00,
2013-03-18 07:36:00,22.1,15.7,30.19,SW,225,0.0,-999.0,76,-99.99,,,0.00,Acu-Link.com,2013-03-18 11:36:00,
2013-03-18 07:51:00,23.0,15.3,30.18,WSW,247,0.0,-999.0,72,-99.99,,,0.00,Acu-Link.com,2013-03-18 11:51:00,
2013-03-18 08:06:00,24.1,14.8,30.17,SSE,157,0.0,-999.0,67,-99.99,,,0.00,Acu-Link.com,2013-03-18 12:06:00,
2013-03-18 08:21:00,24.3,15.6,30.17,WSW,247,1.7,-999.0,69,-99.99,,,0.00,Acu-Link.com,2013-03-18 12:21:00,
2013-03-18 08:36:00,25.0,15.6,30.16,SW,225,3.2,-999.0,67,-99.99,,,0.00,Acu-Link.com,2013-03-18 12:36:00,
2013-03-18 08:52:00,25.7,15.6,30.15,SSE,157,2.2,-999.0,65,-99.99,,,0.00,Acu-Link.com,2013-03-18 12:52:00,
2013-03-18 09:07:00,26.2,15.3,30.15,SSE,157,3.7,-999.0,63,-99.99,,,0.00,Acu-Link.com,2013-03-18 13:07:00,
2013-03-18 09:22:00,27.0,15.4,30.14,SSE,157,4.2,-999.0,61,-99.99,,,0.00,Acu-Link.com,2013-03-18 13:22:00,
2013-03-18 09:37:00,27.9,15.1,30.13,SE,135,3.2,-999.0,58,-99.99,,,0.00,Acu-Link.com,2013-03-18 13:37:00,
2013-03-18 09:52:00,27.9,15.5,30.13,ESE,112,5.3,-999.0,59,-99.99,,,0.00,Acu-Link.com,2013-03-18 13:52:00,
2013-03-18 10:07:00,28.6,16.5,30.12,ESE,112,4.2,-999.0,60,-99.99,,,0.00,Acu-Link.com,2013-03-18 14:07:00,
2013-03-18 10:23:00,28.6,15.7,30.12,SE,135,4.2,-999.0,58,-99.99,,,0.00,Acu-Link.com,2013-03-18 14:23:00,
2013-03-18 10:38:00,28.9,15.6,30.12,ESE,112,4.7,-999.0,57,-99.99,,,0.00,Acu-Link.com,2013-03-18 14:38:00,
2013-03-18 10:53:00,28.9,15.6,30.11,SE,135,5.3,-999.0,57,-99.99,,,0.00,Acu-Link.com,2013-03-18 14:53:00,
2013-03-18 11:08:00,29.5,17.0,30.11,SE,135,3.7,-999.0,59,-99.99,,,0.00,Acu-Link.com,2013-03-18 15:08:00,
2013-03-18 11:23:00,29.5,17.0,30.10,SSE,157,7.8,-999.0,59,-99.99,,,0.00,Acu-Link.com,2013-03-18 15:23:00,
2013-03-18 11:38:00,28.8,19.2,30.10,WSW,247,4.7,-999.0,67,-99.99,,,0.00,Acu-Link.com,2013-03-18 15:38:00,
2013-03-18 11:54:00,28.2,20.0,30.10,SSE,157,3.2,-999.0,71,-99.99,,,0.00,Acu-Link.com,2013-03-18 15:54:00,
2013-03-18 12:09:00,27.5,20.6,30.09,SSE,157,2.7,-999.0,75,-99.99,,,0.00,Acu-Link.com,2013-03-18 16:09:00,
2013-03-18 12:24:00,27.3,21.7,30.08,ESE,112,3.2,-999.0,79,-99.99,,,0.00,Acu-Link.com,2013-03-18 16:24:00,
2013-03-18 12:54:00,27.9,20.7,30.08,SSE,157,6.3,-999.0,74,-99.99,,,0.00,Acu-Link.com,2013-03-18 16:54:00,
2013-03-18 13:09:00,28.2,20.4,30.07,ESE,112,5.3,-999.0,72,-99.99,,,0.00,Acu-Link.com,2013-03-18 17:09:00,
2013-03-18 13:25:00,28.4,20.2,30.06,SE,135,4.2,-999.0,71,-99.99,,,0.00,Acu-Link.com,2013-03-18 17:25:00,
2013-03-18 13:40:00,28.8,19.6,30.05,East,90,6.3,-999.0,68,-99.99,,,0.00,Acu-Link.com,2013-03-18 17:40:00,
2013-03-18 13:55:00,28.9,18.6,30.03,SSE,157,4.2,-999.0,65,-99.99,,,0.00,Acu-Link.com,2013-03-18 17:55:00,
2013-03-18 14:10:00,29.1,18.5,30.01,ESE,112,5.3,-999.0,64,-99.99,,,0.00,Acu-Link.com,2013-03-18 18:10:00,
2013-03-18 14:25:00,29.3,18.3,30.00,SE,135,4.7,-999.0,63,-99.99,,,0.00,Acu-Link.com,2013-03-18 18:25:00,
2013-03-18 14:40:00,29.8,19.9,30.00,ESE,112,3.7,-999.0,66,-99.99,,,0.00,Acu-Link.com,2013-03-18 18:40:00,
2013-03-18 14:55:00,27.7,22.4,29.99,SSE,157,5.8,-999.0,80,-99.99,,,0.00,Acu-Link.com,2013-03-18 18:55:00,
2013-03-18 15:10:00,27.3,22.5,29.98,SSE,157,5.8,-999.0,82,-99.99,,,0.00,Acu-Link.com,2013-03-18 19:10:00,
2013-03-18 15:25:00,27.1,23.2,29.98,SSE,157,4.2,-999.0,85,-99.99,,,0.00,Acu-Link.com,2013-03-18 19:25:00,
2013-03-18 15:41:00,27.0,23.4,29.97,SSE,157,4.7,-999.0,86,-99.99,,,0.00,Acu-Link.com,2013-03-18 19:41:00,
2013-03-18 15:56:00,27.0,23.4,29.96,SE,135,4.2,-999.0,86,-99.99,,,0.00,Acu-Link.com,2013-03-18 19:56:00,
2013-03-18 16:26:00,27.1,23.8,29.96,ESE,112,2.2,-999.0,87,-99.99,,,0.00,Acu-Link.com,2013-03-18 20:26:00,
2013-03-18 16:41:00,27.1,23.5,29.95,ESE,112,4.2,-999.0,86,-99.99,,,0.00,Acu-Link.com,2013-03-18 20:41:00,
2013-03-18 16:56:00,27.3,23.4,29.94,SE,135,2.2,-999.0,85,-99.99,,,0.00,Acu-Link.com,2013-03-18 20:56:00,
2013-03-18 17:11:00,27.5,23.6,29.94,SSE,157,2.2,-999.0,85,-99.99,,,0.00,Acu-Link.com,2013-03-18 21:11:00,
2013-03-18 17:26:00,27.5,23.6,29.94,ESE,112,2.2,-999.0,85,-99.99,,,0.00,Acu-Link.com,2013-03-18 21:26:00,
2013-03-18 17:41:00,27.7,24.1,29.93,SSE,157,2.7,-999.0,86,-99.99,,,0.00,Acu-Link.com,2013-03-18 21:41:00,
2013-03-18 17:57:00,27.9,24.3,29.92,SSE,157,1.7,-999.0,86,-99.99,,,0.00,Acu-Link.com,2013-03-18 21:57:00,
2013-03-18 18:12:00,27.9,24.3,29.91,West,270,1.7,-999.0,86,-99.99,,,0.00,Acu-Link.com,2013-03-18 22:12:00,
2013-03-18 18:27:00,28.0,24.4,29.90,SE,135,2.2,-999.0,86,-99.99,,,0.00,Acu-Link.com,2013-03-18 22:27:00,
2013-03-18 18:42:00,28.0,24.4,29.89,SSE,157,2.7,-999.0,86,-99.99,,,0.00,Acu-Link.com,2013-03-18 22:42:00,
2013-03-18 18:57:00,28.0,24.6,29.89,East,90,1.7,-999.0,87,-99.99,,,0.00,Acu-Link.com,2013-03-18 22:57:00,
2013-03-18 19:12:00,28.0,24.6,29.88,SE,135,2.7,-999.0,87,-99.99,,,0.00,Acu-Link.com,2013-03-18 23:12:00,
2013-03-18 19:27:00,28.0,24.6,29.88,NW,315,1.1,-999.0,87,-99.99,,,0.00,Acu-Link.com,2013-03-18 23:27:00,
2013-03-18 19:42:00,28.0,24.9,29.88,SE,135,1.7,-999.0,88,-99.99,,,0.00,Acu-Link.com,2013-03-18 23:42:00,
2013-03-18 19:57:00,28.0,24.9,29.88,ESE,112,1.7,-999.0,88,-99.99,,,0.00,Acu-Link.com,2013-03-18 23:57:00,
2013-03-18 20:13:00,28.0,25.2,29.88,SSE,157,3.2,-999.0,89,-99.99,,,0.00,Acu-Link.com,2013-03-19 00:13:00,
2013-03-18 20:28:00,28.0,25.2,29.86,NNE,22,2.7,-999.0,89,-99.99,,,0.00,Acu-Link.com,2013-03-19 00:28:00,
2013-03-18 20:43:00,28.0,25.2,29.86,SE,135,3.2,-999.0,89,-99.99,,,0.00,Acu-Link.com,2013-03-19 00:43:00,
2013-03-18 20:58:00,28.2,25.7,29.86,South,180,1.1,-999.0,90,-99.99,,,0.00,Acu-Link.com,2013-03-19 00:58:00,
2013-03-18 21:13:00,28.4,25.8,29.86,WSW,247,2.2,-999.0,90,-99.99,,,0.00,Acu-Link.com,2013-03-19 01:13:00,
2013-03-18 21:28:00,28.6,26.0,29.85,ESE,112,2.7,-999.0,90,-99.99,,,0.00,Acu-Link.com,2013-03-19 01:28:00,
2013-03-18 21:43:00,28.6,26.0,29.85,NW,315,2.2,-999.0,90,-99.99,,,0.00,Acu-Link.com,2013-03-19 01:43:00,
2013-03-18 21:58:00,28.8,26.2,29.84,SSW,202,2.7,-999.0,90,-99.99,,,0.00,Acu-Link.com,2013-03-19 01:58:00,
2013-03-18 22:13:00,28.9,26.1,29.82,SSE,157,2.7,-999.0,89,-99.99,,,0.00,Acu-Link.com,2013-03-19 02:13:00,
2013-03-18 22:28:00,29.1,26.3,29.81,SE,135,2.7,-999.0,89,-99.99,,,0.00,Acu-Link.com,2013-03-19 02:28:00,
2013-03-18 22:44:00,29.1,26.3,29.80,West,270,2.2,-999.0,89,-99.99,,,0.00,Acu-Link.com,2013-03-19 02:44:00,
2013-03-18 22:59:00,28.9,26.3,29.79,SE,135,3.2,-999.0,90,-99.99,,,0.00,Acu-Link.com,2013-03-19 02:59:00,
2013-03-18 23:14:00,29.1,26.3,29.79,WNW,292,0.0,-999.0,89,-99.99,,,0.00,Acu-Link.com,2013-03-19 03:14:00,
2013-03-18 23:29:00,29.1,26.5,29.78,SE,135,5.3,-999.0,90,-99.99,,,0.00,Acu-Link.com,2013-03-19 03:29:00,
2013-03-18 23:44:00,29.3,26.7,29.77,South,180,2.7,-999.0,90,-99.99,,,0.00,Acu-Link.com,2013-03-19 03:44:00,
2013-03-18 23:59:00,29.5,26.9,29.76,West,270,1.7,-999.0,90,-99.99,,,0.00,Acu-Link.com,2013-03-19 03:59:00,